sensor_id;sensor_type;location;lat;lon;timestamp;temperature;humidity
4487;DHT22;2256;48.740;9.106;2023-05-07T00:02:23;13.50;99.90
4487;DHT22;2256;48.740;9.106;2023-05-07T00:04:50;13.50;99.90
4487;DHT22;2256;48.740;9.106;2023-05-07T00:07:17;13.50;99.90
4487;DHT22;2256;48.740;9.106;2023-05-07T00:09:44;13.60;99.90
4487;DHT22;2256;48.740;9.106;2023-05-07T00:12:12;13.50;99.90
4487;DHT22;2256;48.740;9.106;2023-05-07T00:14:39;13.40;99.90
4487;DHT22;2256;48.740;9.106;2023-05-07T00:17:06;13.40;99.90
4487;DHT22;2256;48.740;9.106;2023-05-07T00:19:34;13.30;99.90
4487;DHT22;2256;48.740;9.106;2023-05-07T00:22:01;13.30;99.90
4487;DHT22;2256;48.740;9.106;2023-05-07T00:24:28;13.30;99.90
4487;DHT22;2256;48.740;9.106;2023-05-07T00:26:55;13.30;99.90
4487;DHT22;2256;48.740;9.106;2023-05-07T00:29:23;13.20;99.90
4487;DHT22;2256;48.740;9.106;2023-05-07T00:31:51;13.30;99.90
4487;DHT22;2256;48.740;9.106;2023-05-07T00:34:20;13.20;99.90
4487;DHT22;2256;48.740;9.106;2023-05-07T00:36:48;13.20;99.90
4487;DHT22;2256;48.740;9.106;2023-05-07T00:39:14;13.20;99.90
4487;DHT22;2256;48.740;9.106;2023-05-07T00:41:42;13.10;99.90
4487;DHT22;2256;48.740;9.106;2023-05-07T00:44:09;13.10;99.90
4487;DHT22;2256;48.740;9.106;2023-05-07T00:46:38;13.00;99.90
4487;DHT22;2256;48.740;9.106;2023-05-07T00:49:05;12.90;99.90
4487;DHT22;2256;48.740;9.106;2023-05-07T00:51:33;13.00;99.90
4487;DHT22;2256;48.740;9.106;2023-05-07T00:54:02;13.00;99.90
4487;DHT22;2256;48.740;9.106;2023-05-07T00:56:29;12.90;99.90
4487;DHT22;2256;48.740;9.106;2023-05-07T00:58:56;12.90;99.90
4487;DHT22;2256;48.740;9.106;2023-05-07T01:01:23;12.80;99.90
4487;DHT22;2256;48.740;9.106;2023-05-07T01:03:50;12.80;99.90
4487;DHT22;2256;48.740;9.106;2023-05-07T01:06:17;12.80;99.90
4487;DHT22;2256;48.740;9.106;2023-05-07T01:08:46;12.90;99.90
4487;DHT22;2256;48.740;9.106;2023-05-07T01:11:17;12.90;99.90
4487;DHT22;2256;48.740;9.106;2023-05-07T01:13:46;12.80;99.90
4487;DHT22;2256;48.740;9.106;2023-05-07T01:16:15;12.80;99.90
4487;DHT22;2256;48.740;9.106;2023-05-07T01:18:42;12.80;99.90
4487;DHT22;2256;48.740;9.106;2023-05-07T01:21:11;12.80;99.90
4487;DHT22;2256;48.740;9.106;2023-05-07T01:23:39;12.80;99.90
4487;DHT22;2256;48.740;9.106;2023-05-07T01:26:07;12.80;99.90
4487;DHT22;2256;48.740;9.106;2023-05-07T01:28:34;12.80;99.90
4487;DHT22;2256;48.740;9.106;2023-05-07T01:31:03;12.80;99.90
4487;DHT22;2256;48.740;9.106;2023-05-07T01:33:33;12.80;99.90
4487;DHT22;2256;48.740;9.106;2023-05-07T01:36:03;12.70;99.90
4487;DHT22;2256;48.740;9.106;2023-05-07T01:38:33;12.70;99.90
4487;DHT22;2256;48.740;9.106;2023-05-07T01:41:02;12.80;99.90
4487;DHT22;2256;48.740;9.106;2023-05-07T01:43:29;12.70;99.90
4487;DHT22;2256;48.740;9.106;2023-05-07T01:45:57;12.70;99.90
4487;DHT22;2256;48.740;9.106;2023-05-07T01:48:25;12.70;99.90
4487;DHT22;2256;48.740;9.106;2023-05-07T01:50:54;12.70;99.90
4487;DHT22;2256;48.740;9.106;2023-05-07T01:53:21;12.70;99.90
4487;DHT22;2256;48.740;9.106;2023-05-07T01:55:48;12.70;99.90
4487;DHT22;2256;48.740;9.106;2023-05-07T01:58:17;12.70;99.90
4487;DHT22;2256;48.740;9.106;2023-05-07T02:00:50;12.60;99.90
4487;DHT22;2256;48.740;9.106;2023-05-07T02:03:16;12.60;99.90
4487;DHT22;2256;48.740;9.106;2023-05-07T02:05:45;12.60;99.90
4487;DHT22;2256;48.740;9.106;2023-05-07T02:08:11;12.70;99.90
4487;DHT22;2256;48.740;9.106;2023-05-07T02:10:39;12.70;99.90
4487;DHT22;2256;48.740;9.106;2023-05-07T02:13:06;12.80;99.90
4487;DHT22;2256;48.740;9.106;2023-05-07T02:15:35;12.80;99.90
4487;DHT22;2256;48.740;9.106;2023-05-07T02:18:03;12.90;99.90
4487;DHT22;2256;48.740;9.106;2023-05-07T02:20:31;12.90;99.90
4487;DHT22;2256;48.740;9.106;2023-05-07T02:22:58;12.90;99.90
4487;DHT22;2256;48.740;9.106;2023-05-07T02:25:26;12.80;99.90
4487;DHT22;2256;48.740;9.106;2023-05-07T02:27:52;12.90;99.90
4487;DHT22;2256;48.740;9.106;2023-05-07T02:30:19;12.80;99.90
4487;DHT22;2256;48.740;9.106;2023-05-07T02:32:48;12.80;99.90
4487;DHT22;2256;48.740;9.106;2023-05-07T02:35:15;12.80;99.90
4487;DHT22;2256;48.740;9.106;2023-05-07T02:37:42;12.80;99.90
4487;DHT22;2256;48.740;9.106;2023-05-07T02:40:11;12.70;99.90
4487;DHT22;2256;48.740;9.106;2023-05-07T02:42:39;12.70;99.90
4487;DHT22;2256;48.740;9.106;2023-05-07T02:45:06;12.70;99.90
4487;DHT22;2256;48.740;9.106;2023-05-07T02:47:33;12.60;99.90
4487;DHT22;2256;48.740;9.106;2023-05-07T02:50:02;12.60;99.90
4487;DHT22;2256;48.740;9.106;2023-05-07T02:52:29;12.50;99.90
4487;DHT22;2256;48.740;9.106;2023-05-07T02:54:55;12.40;99.90
4487;DHT22;2256;48.740;9.106;2023-05-07T02:57:22;12.30;99.90
4487;DHT22;2256;48.740;9.106;2023-05-07T02:59:49;12.30;99.90
4487;DHT22;2256;48.740;9.106;2023-05-07T03:02:16;12.30;99.90
4487;DHT22;2256;48.740;9.106;2023-05-07T03:04:43;12.40;99.90
4487;DHT22;2256;48.740;9.106;2023-05-07T03:07:13;12.30;99.90
4487;DHT22;2256;48.740;9.106;2023-05-07T03:09:42;12.40;99.90
4487;DHT22;2256;48.740;9.106;2023-05-07T03:12:10;12.10;99.90
4487;DHT22;2256;48.740;9.106;2023-05-07T03:14:37;12.00;99.90
4487;DHT22;2256;48.740;9.106;2023-05-07T03:17:03;11.90;99.90
4487;DHT22;2256;48.740;9.106;2023-05-07T03:19:30;11.90;99.90
4487;DHT22;2256;48.740;9.106;2023-05-07T03:21:58;11.90;99.90
4487;DHT22;2256;48.740;9.106;2023-05-07T03:24:26;11.90;99.90
4487;DHT22;2256;48.740;9.106;2023-05-07T03:26:52;11.90;99.90
4487;DHT22;2256;48.740;9.106;2023-05-07T03:29:19;12.00;99.90
4487;DHT22;2256;48.740;9.106;2023-05-07T03:31:47;11.90;99.90
4487;DHT22;2256;48.740;9.106;2023-05-07T03:34:15;12.00;99.90
4487;DHT22;2256;48.740;9.106;2023-05-07T03:36:42;11.90;99.90
4487;DHT22;2256;48.740;9.106;2023-05-07T03:39:10;11.90;99.90
4487;DHT22;2256;48.740;9.106;2023-05-07T03:41:38;11.90;99.90
4487;DHT22;2256;48.740;9.106;2023-05-07T03:44:05;11.90;99.90
4487;DHT22;2256;48.740;9.106;2023-05-07T03:46:33;11.80;99.90
4487;DHT22;2256;48.740;9.106;2023-05-07T03:49:00;11.70;99.90
4487;DHT22;2256;48.740;9.106;2023-05-07T03:51:28;11.60;99.90
4487;DHT22;2256;48.740;9.106;2023-05-07T03:53:55;11.70;99.90
4487;DHT22;2256;48.740;9.106;2023-05-07T03:56:24;11.70;99.90
4487;DHT22;2256;48.740;9.106;2023-05-07T03:58:54;11.70;99.90
4487;DHT22;2256;48.740;9.106;2023-05-07T04:01:22;11.70;99.90
4487;DHT22;2256;48.740;9.106;2023-05-07T04:03:49;11.70;99.90
4487;DHT22;2256;48.740;9.106;2023-05-07T04:06:16;11.60;99.90
4487;DHT22;2256;48.740;9.106;2023-05-07T04:08:43;11.60;99.90
4487;DHT22;2256;48.740;9.106;2023-05-07T04:11:09;11.60;99.90
4487;DHT22;2256;48.740;9.106;2023-05-07T04:13:36;11.60;99.90
4487;DHT22;2256;48.740;9.106;2023-05-07T04:16:05;11.60;99.90
4487;DHT22;2256;48.740;9.106;2023-05-07T04:18:32;11.60;99.90
4487;DHT22;2256;48.740;9.106;2023-05-07T04:21:00;11.70;99.90
4487;DHT22;2256;48.740;9.106;2023-05-07T04:23:27;11.70;99.90
4487;DHT22;2256;48.740;9.106;2023-05-07T04:25:53;11.70;99.90
4487;DHT22;2256;48.740;9.106;2023-05-07T04:28:20;11.80;99.90
4487;DHT22;2256;48.740;9.106;2023-05-07T04:30:47;11.80;99.90
4487;DHT22;2256;48.740;9.106;2023-05-07T04:33:15;11.80;99.90
4487;DHT22;2256;48.740;9.106;2023-05-07T04:35:43;11.90;99.90
4487;DHT22;2256;48.740;9.106;2023-05-07T04:38:10;11.90;99.90
4487;DHT22;2256;48.740;9.106;2023-05-07T04:40:37;12.00;99.90
4487;DHT22;2256;48.740;9.106;2023-05-07T04:43:04;12.10;99.90
4487;DHT22;2256;48.740;9.106;2023-05-07T04:45:31;12.00;99.90
4487;DHT22;2256;48.740;9.106;2023-05-07T04:47:58;12.10;99.90
4487;DHT22;2256;48.740;9.106;2023-05-07T04:50:27;12.10;99.90
4487;DHT22;2256;48.740;9.106;2023-05-07T04:52:54;12.10;99.90
4487;DHT22;2256;48.740;9.106;2023-05-07T04:55:21;12.20;99.90
4487;DHT22;2256;48.740;9.106;2023-05-07T04:57:47;12.20;99.90
4487;DHT22;2256;48.740;9.106;2023-05-07T05:00:15;12.10;99.90
4487;DHT22;2256;48.740;9.106;2023-05-07T05:02:42;12.20;99.90
4487;DHT22;2256;48.740;9.106;2023-05-07T05:05:09;12.20;99.90
4487;DHT22;2256;48.740;9.106;2023-05-07T05:07:38;12.20;99.90
4487;DHT22;2256;48.740;9.106;2023-05-07T05:10:06;12.30;99.90
4487;DHT22;2256;48.740;9.106;2023-05-07T05:12:33;12.40;99.90
4487;DHT22;2256;48.740;9.106;2023-05-07T05:15:00;12.50;99.90
4487;DHT22;2256;48.740;9.106;2023-05-07T05:17:27;12.50;99.90
4487;DHT22;2256;48.740;9.106;2023-05-07T05:19:53;12.50;99.90
4487;DHT22;2256;48.740;9.106;2023-05-07T05:22:21;12.70;99.90
4487;DHT22;2256;48.740;9.106;2023-05-07T05:24:49;13.10;99.90
4487;DHT22;2256;48.740;9.106;2023-05-07T05:27:16;13.40;99.90
4487;DHT22;2256;48.740;9.106;2023-05-07T05:29:42;13.80;99.90
4487;DHT22;2256;48.740;9.106;2023-05-07T05:32:09;14.20;99.90
4487;DHT22;2256;48.740;9.106;2023-05-07T05:34:36;14.30;99.90
4487;DHT22;2256;48.740;9.106;2023-05-07T05:37:02;14.40;99.90
4487;DHT22;2256;48.740;9.106;2023-05-07T05:39:29;14.50;99.90
4487;DHT22;2256;48.740;9.106;2023-05-07T05:41:57;14.80;99.90
4487;DHT22;2256;48.740;9.106;2023-05-07T05:44:25;15.10;99.90
4487;DHT22;2256;48.740;9.106;2023-05-07T05:46:52;15.30;99.90
4487;DHT22;2256;48.740;9.106;2023-05-07T05:49:20;15.60;99.90
4487;DHT22;2256;48.740;9.106;2023-05-07T05:51:47;15.90;99.90
4487;DHT22;2256;48.740;9.106;2023-05-07T05:54:14;16.10;99.90
4487;DHT22;2256;48.740;9.106;2023-05-07T05:56:41;16.20;99.90
4487;DHT22;2256;48.740;9.106;2023-05-07T05:59:10;16.30;99.90
4487;DHT22;2256;48.740;9.106;2023-05-07T06:01:39;16.50;99.90
4487;DHT22;2256;48.740;9.106;2023-05-07T06:04:05;16.60;99.90
4487;DHT22;2256;48.740;9.106;2023-05-07T06:06:32;16.60;99.90
4487;DHT22;2256;48.740;9.106;2023-05-07T06:08:59;16.70;99.90
4487;DHT22;2256;48.740;9.106;2023-05-07T06:11:27;16.80;99.90
4487;DHT22;2256;48.740;9.106;2023-05-07T06:13:54;17.00;99.90
4487;DHT22;2256;48.740;9.106;2023-05-07T06:16:24;17.10;99.90
4487;DHT22;2256;48.740;9.106;2023-05-07T06:18:51;17.20;99.90
4487;DHT22;2256;48.740;9.106;2023-05-07T06:21:18;17.30;99.90
4487;DHT22;2256;48.740;9.106;2023-05-07T06:23:46;17.50;99.90
4487;DHT22;2256;48.740;9.106;2023-05-07T06:26:13;17.90;99.90
4487;DHT22;2256;48.740;9.106;2023-05-07T06:28:40;18.30;99.90
4487;DHT22;2256;48.740;9.106;2023-05-07T06:31:15;18.80;99.90
4487;DHT22;2256;48.740;9.106;2023-05-07T06:33:45;19.20;99.90
4487;DHT22;2256;48.740;9.106;2023-05-07T06:36:12;19.30;99.90
4487;DHT22;2256;48.740;9.106;2023-05-07T06:38:39;19.20;99.90
4487;DHT22;2256;48.740;9.106;2023-05-07T06:41:06;19.20;99.90
4487;DHT22;2256;48.740;9.106;2023-05-07T06:43:33;19.00;99.90
4487;DHT22;2256;48.740;9.106;2023-05-07T06:46:01;18.60;99.90
4487;DHT22;2256;48.740;9.106;2023-05-07T06:48:29;18.90;99.90
4487;DHT22;2256;48.740;9.106;2023-05-07T06:50:58;20.20;99.90
4487;DHT22;2256;48.740;9.106;2023-05-07T06:53:25;21.50;99.90
4487;DHT22;2256;48.740;9.106;2023-05-07T06:55:54;22.20;99.30
4487;DHT22;2256;48.740;9.106;2023-05-07T06:58:23;22.40;99.10
4487;DHT22;2256;48.740;9.106;2023-05-07T07:00:50;22.90;98.30
4487;DHT22;2256;48.740;9.106;2023-05-07T07:03:20;23.60;97.60
4487;DHT22;2256;48.740;9.106;2023-05-07T07:05:46;24.50;96.30
4487;DHT22;2256;48.740;9.106;2023-05-07T07:08:15;25.00;95.50
4487;DHT22;2256;48.740;9.106;2023-05-07T07:10:43;25.00;95.40
4487;DHT22;2256;48.740;9.106;2023-05-07T07:13:10;25.30;94.70
4487;DHT22;2256;48.740;9.106;2023-05-07T07:15:36;25.50;94.80
4487;DHT22;2256;48.740;9.106;2023-05-07T07:18:03;25.80;94.30
4487;DHT22;2256;48.740;9.106;2023-05-07T07:20:30;26.10;93.80
4487;DHT22;2256;48.740;9.106;2023-05-07T07:22:57;26.20;93.80
4487;DHT22;2256;48.740;9.106;2023-05-07T07:25:28;26.80;93.10
4487;DHT22;2256;48.740;9.106;2023-05-07T07:27:55;27.10;91.70
4487;DHT22;2256;48.740;9.106;2023-05-07T07:30:22;26.50;92.80
4487;DHT22;2256;48.740;9.106;2023-05-07T07:32:49;26.30;93.20
4487;DHT22;2256;48.740;9.106;2023-05-07T07:35:16;26.60;93.20
4487;DHT22;2256;48.740;9.106;2023-05-07T07:37:42;27.50;92.30
4487;DHT22;2256;48.740;9.106;2023-05-07T07:40:11;27.90;91.50
4487;DHT22;2256;48.740;9.106;2023-05-07T07:42:39;28.30;91.00
4487;DHT22;2256;48.740;9.106;2023-05-07T07:45:07;28.40;90.50
4487;DHT22;2256;48.740;9.106;2023-05-07T07:47:34;27.80;91.20
4487;DHT22;2256;48.740;9.106;2023-05-07T07:50:02;27.40;91.70
4487;DHT22;2256;48.740;9.106;2023-05-07T07:52:29;27.20;91.70
4487;DHT22;2256;48.740;9.106;2023-05-07T07:54:56;27.80;91.30
4487;DHT22;2256;48.740;9.106;2023-05-07T07:57:24;28.10;91.20
4487;DHT22;2256;48.740;9.106;2023-05-07T07:59:52;28.10;90.60
4487;DHT22;2256;48.740;9.106;2023-05-07T08:02:19;27.20;91.00
4487;DHT22;2256;48.740;9.106;2023-05-07T08:04:46;25.90;92.40
4487;DHT22;2256;48.740;9.106;2023-05-07T08:07:13;25.60;92.90
4487;DHT22;2256;48.740;9.106;2023-05-07T08:09:40;25.70;93.30
4487;DHT22;2256;48.740;9.106;2023-05-07T08:12:07;26.10;92.80
4487;DHT22;2256;48.740;9.106;2023-05-07T08:14:34;26.50;92.00
4487;DHT22;2256;48.740;9.106;2023-05-07T08:17:03;26.70;92.10
4487;DHT22;2256;48.740;9.106;2023-05-07T08:19:30;27.40;91.70
4487;DHT22;2256;48.740;9.106;2023-05-07T08:21:57;28.10;91.40
4487;DHT22;2256;48.740;9.106;2023-05-07T08:24:24;28.90;91.00
4487;DHT22;2256;48.740;9.106;2023-05-07T08:26:53;29.90;89.90
4487;DHT22;2256;48.740;9.106;2023-05-07T08:29:19;30.50;88.30
4487;DHT22;2256;48.740;9.106;2023-05-07T08:31:47;30.90;87.10
4487;DHT22;2256;48.740;9.106;2023-05-07T08:34:15;31.00;85.20
4487;DHT22;2256;48.740;9.106;2023-05-07T08:36:44;30.90;85.70
4487;DHT22;2256;48.740;9.106;2023-05-07T08:39:12;30.70;86.60
4487;DHT22;2256;48.740;9.106;2023-05-07T08:41:40;30.60;86.60
4487;DHT22;2256;48.740;9.106;2023-05-07T08:44:12;30.50;85.90
4487;DHT22;2256;48.740;9.106;2023-05-07T08:46:45;30.60;87.00
4487;DHT22;2256;48.740;9.106;2023-05-07T08:49:15;30.80;86.10
4487;DHT22;2256;48.740;9.106;2023-05-07T08:51:42;30.90;84.80
4487;DHT22;2256;48.740;9.106;2023-05-07T08:54:09;30.00;86.70
4487;DHT22;2256;48.740;9.106;2023-05-07T08:56:37;29.90;87.60
4487;DHT22;2256;48.740;9.106;2023-05-07T08:59:05;29.30;88.10
4487;DHT22;2256;48.740;9.106;2023-05-07T09:01:33;28.80;89.20
4487;DHT22;2256;48.740;9.106;2023-05-07T09:04:01;28.70;90.00
4487;DHT22;2256;48.740;9.106;2023-05-07T09:06:29;29.00;88.30
4487;DHT22;2256;48.740;9.106;2023-05-07T09:08:57;29.00;90.00
4487;DHT22;2256;48.740;9.106;2023-05-07T09:11:27;29.30;88.60
4487;DHT22;2256;48.740;9.106;2023-05-07T09:13:54;29.50;87.30
4487;DHT22;2256;48.740;9.106;2023-05-07T09:16:24;29.40;87.80
4487;DHT22;2256;48.740;9.106;2023-05-07T09:18:52;29.60;88.70
4487;DHT22;2256;48.740;9.106;2023-05-07T09:21:21;29.60;88.50
4487;DHT22;2256;48.740;9.106;2023-05-07T09:23:50;29.90;87.60
4487;DHT22;2256;48.740;9.106;2023-05-07T09:26:21;29.80;87.20
4487;DHT22;2256;48.740;9.106;2023-05-07T09:28:47;29.90;87.10
4487;DHT22;2256;48.740;9.106;2023-05-07T09:31:14;29.90;87.80
4487;DHT22;2256;48.740;9.106;2023-05-07T09:33:41;29.90;87.30
4487;DHT22;2256;48.740;9.106;2023-05-07T09:36:09;29.90;87.30
4487;DHT22;2256;48.740;9.106;2023-05-07T09:38:37;30.00;86.80
4487;DHT22;2256;48.740;9.106;2023-05-07T09:41:07;30.20;86.20
4487;DHT22;2256;48.740;9.106;2023-05-07T09:43:36;29.60;87.20
4487;DHT22;2256;48.740;9.106;2023-05-07T09:46:06;29.40;88.40
4487;DHT22;2256;48.740;9.106;2023-05-07T09:48:37;28.70;89.20
4487;DHT22;2256;48.740;9.106;2023-05-07T09:51:14;27.90;90.40
4487;DHT22;2256;48.740;9.106;2023-05-07T09:53:43;28.30;90.60
4487;DHT22;2256;48.740;9.106;2023-05-07T09:56:14;28.90;89.40
4487;DHT22;2256;48.740;9.106;2023-05-07T09:58:42;28.50;89.40
4487;DHT22;2256;48.740;9.106;2023-05-07T10:01:11;28.60;88.50
4487;DHT22;2256;48.740;9.106;2023-05-07T10:03:40;28.00;89.30
4487;DHT22;2256;48.740;9.106;2023-05-07T10:06:09;27.50;90.30
4487;DHT22;2256;48.740;9.106;2023-05-07T10:08:36;27.30;90.90
4487;DHT22;2256;48.740;9.106;2023-05-07T10:11:04;27.20;90.50
4487;DHT22;2256;48.740;9.106;2023-05-07T10:13:33;27.40;91.00
4487;DHT22;2256;48.740;9.106;2023-05-07T10:16:01;27.30;90.30
4487;DHT22;2256;48.740;9.106;2023-05-07T10:18:31;26.80;90.70
4487;DHT22;2256;48.740;9.106;2023-05-07T10:21:02;26.10;91.80
4487;DHT22;2256;48.740;9.106;2023-05-07T10:23:31;26.30;92.20
4487;DHT22;2256;48.740;9.106;2023-05-07T10:25:59;26.50;91.70
4487;DHT22;2256;48.740;9.106;2023-05-07T10:28:29;26.60;90.50
4487;DHT22;2256;48.740;9.106;2023-05-07T10:31:07;26.40;92.10
4487;DHT22;2256;48.740;9.106;2023-05-07T10:33:37;26.40;91.40
4487;DHT22;2256;48.740;9.106;2023-05-07T10:36:06;26.50;90.50
4487;DHT22;2256;48.740;9.106;2023-05-07T10:38:33;26.50;90.20
4487;DHT22;2256;48.740;9.106;2023-05-07T10:41:01;26.30;90.60
4487;DHT22;2256;48.740;9.106;2023-05-07T10:43:39;26.00;90.30
4487;DHT22;2256;48.740;9.106;2023-05-07T10:46:14;26.00;91.00
4487;DHT22;2256;48.740;9.106;2023-05-07T10:49:06;26.30;91.50
4487;DHT22;2256;48.740;9.106;2023-05-07T10:51:34;26.80;90.70
4487;DHT22;2256;48.740;9.106;2023-05-07T10:54:22;27.20;90.30
4487;DHT22;2256;48.740;9.106;2023-05-07T10:56:54;27.10;90.10
4487;DHT22;2256;48.740;9.106;2023-05-07T10:59:36;27.00;89.70
4487;DHT22;2256;48.740;9.106;2023-05-07T11:02:09;26.70;89.50
4487;DHT22;2256;48.740;9.106;2023-05-07T11:04:37;26.70;89.20
4487;DHT22;2256;48.740;9.106;2023-05-07T11:07:26;26.90;87.20
4487;DHT22;2256;48.740;9.106;2023-05-07T11:09:58;27.10;87.60
4487;DHT22;2256;48.740;9.106;2023-05-07T11:15:38;25.80;90.40
4487;DHT22;2256;48.740;9.106;2023-05-07T11:18:07;25.30;90.30
4487;DHT22;2256;48.740;9.106;2023-05-07T11:21:01;25.10;92.00
4487;DHT22;2256;48.740;9.106;2023-05-07T11:26:44;24.30;90.90
4487;DHT22;2256;48.740;9.106;2023-05-07T11:29:12;24.20;90.80
4487;DHT22;2256;48.740;9.106;2023-05-07T11:31:40;24.10;90.90
4487;DHT22;2256;48.740;9.106;2023-05-07T11:34:08;24.10;92.70
4487;DHT22;2256;48.740;9.106;2023-05-07T11:36:42;24.00;92.90
4487;DHT22;2256;48.740;9.106;2023-05-07T11:39:29;23.80;93.20
4487;DHT22;2256;48.740;9.106;2023-05-07T11:41:57;23.60;95.90
4487;DHT22;2256;48.740;9.106;2023-05-07T11:44:23;23.20;94.80
4487;DHT22;2256;48.740;9.106;2023-05-07T11:46:51;23.00;95.90
4487;DHT22;2256;48.740;9.106;2023-05-07T11:49:20;22.80;97.00
4487;DHT22;2256;48.740;9.106;2023-05-07T11:51:47;22.40;97.80
4487;DHT22;2256;48.740;9.106;2023-05-07T11:54:16;22.20;99.90
4487;DHT22;2256;48.740;9.106;2023-05-07T11:56:44;21.90;99.90
4487;DHT22;2256;48.740;9.106;2023-05-07T11:59:16;21.70;99.90
4487;DHT22;2256;48.740;9.106;2023-05-07T12:01:45;21.30;99.90
4487;DHT22;2256;48.740;9.106;2023-05-07T12:04:13;20.60;99.90
4487;DHT22;2256;48.740;9.106;2023-05-07T12:06:45;20.10;99.90
4487;DHT22;2256;48.740;9.106;2023-05-07T12:09:12;19.60;99.90
4487;DHT22;2256;48.740;9.106;2023-05-07T12:11:39;19.20;99.90
4487;DHT22;2256;48.740;9.106;2023-05-07T12:14:07;18.90;99.90
4487;DHT22;2256;48.740;9.106;2023-05-07T12:16:34;18.60;99.90
4487;DHT22;2256;48.740;9.106;2023-05-07T12:19:02;18.30;99.90
4487;DHT22;2256;48.740;9.106;2023-05-07T12:21:29;18.20;99.90
4487;DHT22;2256;48.740;9.106;2023-05-07T12:23:57;17.90;99.90
4487;DHT22;2256;48.740;9.106;2023-05-07T12:26:24;17.80;99.90
4487;DHT22;2256;48.740;9.106;2023-05-07T12:28:54;17.50;99.90
4487;DHT22;2256;48.740;9.106;2023-05-07T12:31:22;17.20;99.90
4487;DHT22;2256;48.740;9.106;2023-05-07T12:33:49;17.10;99.90
4487;DHT22;2256;48.740;9.106;2023-05-07T12:36:17;16.90;99.90
4487;DHT22;2256;48.740;9.106;2023-05-07T12:38:44;16.70;99.90
4487;DHT22;2256;48.740;9.106;2023-05-07T12:41:12;16.50;99.90
4487;DHT22;2256;48.740;9.106;2023-05-07T12:43:39;16.20;99.90
4487;DHT22;2256;48.740;9.106;2023-05-07T12:46:07;16.10;99.90
4487;DHT22;2256;48.740;9.106;2023-05-07T12:48:36;15.90;99.90
4487;DHT22;2256;48.740;9.106;2023-05-07T12:51:03;15.80;99.90
4487;DHT22;2256;48.740;9.106;2023-05-07T12:53:31;15.70;99.90
4487;DHT22;2256;48.740;9.106;2023-05-07T12:55:59;15.60;99.90
4487;DHT22;2256;48.740;9.106;2023-05-07T12:58:29;15.60;99.90
4487;DHT22;2256;48.740;9.106;2023-05-07T13:00:58;15.60;99.90
4487;DHT22;2256;48.740;9.106;2023-05-07T13:03:27;15.60;99.90
4487;DHT22;2256;48.740;9.106;2023-05-07T13:05:55;15.60;99.90
4487;DHT22;2256;48.740;9.106;2023-05-07T13:08:26;15.60;99.90
4487;DHT22;2256;48.740;9.106;2023-05-07T13:10:53;15.50;99.90
4487;DHT22;2256;48.740;9.106;2023-05-07T13:13:20;15.40;99.90
4487;DHT22;2256;48.740;9.106;2023-05-07T13:15:49;15.20;99.90
4487;DHT22;2256;48.740;9.106;2023-05-07T13:18:15;15.10;99.90
4487;DHT22;2256;48.740;9.106;2023-05-07T13:20:42;15.30;99.90
4487;DHT22;2256;48.740;9.106;2023-05-07T13:23:09;15.40;99.90
4487;DHT22;2256;48.740;9.106;2023-05-07T13:25:36;15.40;99.90
4487;DHT22;2256;48.740;9.106;2023-05-07T13:28:04;15.40;99.90
4487;DHT22;2256;48.740;9.106;2023-05-07T13:30:34;15.10;99.90
4487;DHT22;2256;48.740;9.106;2023-05-07T13:33:03;14.90;99.90
4487;DHT22;2256;48.740;9.106;2023-05-07T13:35:31;14.70;99.90
4487;DHT22;2256;48.740;9.106;2023-05-07T13:37:58;14.50;99.90
4487;DHT22;2256;48.740;9.106;2023-05-07T13:40:25;14.50;99.90
4487;DHT22;2256;48.740;9.106;2023-05-07T13:42:56;14.40;99.90
4487;DHT22;2256;48.740;9.106;2023-05-07T13:45:24;14.30;99.90
4487;DHT22;2256;48.740;9.106;2023-05-07T13:47:52;14.50;99.90
4487;DHT22;2256;48.740;9.106;2023-05-07T13:50:20;14.40;99.90
4487;DHT22;2256;48.740;9.106;2023-05-07T13:52:47;14.60;99.90
4487;DHT22;2256;48.740;9.106;2023-05-07T13:55:16;14.70;99.90
4487;DHT22;2256;48.740;9.106;2023-05-07T13:57:43;14.70;99.90
4487;DHT22;2256;48.740;9.106;2023-05-07T14:00:11;14.70;99.90
4487;DHT22;2256;48.740;9.106;2023-05-07T14:02:38;14.90;99.90
4487;DHT22;2256;48.740;9.106;2023-05-07T14:05:06;15.00;99.90
4487;DHT22;2256;48.740;9.106;2023-05-07T14:07:34;15.10;99.90
4487;DHT22;2256;48.740;9.106;2023-05-07T14:10:01;15.20;99.90
4487;DHT22;2256;48.740;9.106;2023-05-07T14:12:28;15.20;99.90
4487;DHT22;2256;48.740;9.106;2023-05-07T14:14:55;15.30;99.90
4487;DHT22;2256;48.740;9.106;2023-05-07T14:17:24;15.30;99.90
4487;DHT22;2256;48.740;9.106;2023-05-07T14:19:52;15.30;99.90
4487;DHT22;2256;48.740;9.106;2023-05-07T14:22:20;15.50;99.90
4487;DHT22;2256;48.740;9.106;2023-05-07T14:24:49;15.50;99.90
4487;DHT22;2256;48.740;9.106;2023-05-07T14:27:16;15.50;99.90
4487;DHT22;2256;48.740;9.106;2023-05-07T14:29:43;15.50;99.90
4487;DHT22;2256;48.740;9.106;2023-05-07T14:32:11;15.40;99.90
4487;DHT22;2256;48.740;9.106;2023-05-07T14:34:37;15.50;99.90
4487;DHT22;2256;48.740;9.106;2023-05-07T14:37:04;15.50;99.90
4487;DHT22;2256;48.740;9.106;2023-05-07T14:39:31;15.50;99.90
4487;DHT22;2256;48.740;9.106;2023-05-07T14:41:59;15.60;99.90
4487;DHT22;2256;48.740;9.106;2023-05-07T14:44:26;15.70;99.90
4487;DHT22;2256;48.740;9.106;2023-05-07T14:46:53;15.70;99.90
4487;DHT22;2256;48.740;9.106;2023-05-07T14:49:19;15.70;99.90
4487;DHT22;2256;48.740;9.106;2023-05-07T14:51:47;15.70;99.90
4487;DHT22;2256;48.740;9.106;2023-05-07T14:54:14;15.80;99.90
4487;DHT22;2256;48.740;9.106;2023-05-07T14:56:41;15.80;99.90
4487;DHT22;2256;48.740;9.106;2023-05-07T14:59:10;15.90;99.90
4487;DHT22;2256;48.740;9.106;2023-05-07T15:01:37;15.90;99.90
4487;DHT22;2256;48.740;9.106;2023-05-07T15:04:06;16.00;99.90
4487;DHT22;2256;48.740;9.106;2023-05-07T15:06:32;16.10;99.90
4487;DHT22;2256;48.740;9.106;2023-05-07T15:08:59;16.20;99.90
4487;DHT22;2256;48.740;9.106;2023-05-07T15:11:26;16.20;99.90
4487;DHT22;2256;48.740;9.106;2023-05-07T15:13:53;16.30;99.90
4487;DHT22;2256;48.740;9.106;2023-05-07T15:16:21;16.30;99.90
4487;DHT22;2256;48.740;9.106;2023-05-07T15:18:49;16.40;99.90
4487;DHT22;2256;48.740;9.106;2023-05-07T15:21:16;16.40;99.90
4487;DHT22;2256;48.740;9.106;2023-05-07T15:23:42;16.50;99.90
4487;DHT22;2256;48.740;9.106;2023-05-07T15:26:09;16.60;99.90
4487;DHT22;2256;48.740;9.106;2023-05-07T15:28:36;16.60;99.90
4487;DHT22;2256;48.740;9.106;2023-05-07T15:31:03;16.60;99.90
4487;DHT22;2256;48.740;9.106;2023-05-07T15:33:32;16.70;99.90
4487;DHT22;2256;48.740;9.106;2023-05-07T15:35:58;16.70;99.90
4487;DHT22;2256;48.740;9.106;2023-05-07T15:38:26;16.80;99.90
4487;DHT22;2256;48.740;9.106;2023-05-07T15:40:53;16.90;99.90
4487;DHT22;2256;48.740;9.106;2023-05-07T15:43:20;17.00;99.90
4487;DHT22;2256;48.740;9.106;2023-05-07T15:45:47;17.00;99.90
4487;DHT22;2256;48.740;9.106;2023-05-07T15:48:14;16.90;99.90
4487;DHT22;2256;48.740;9.106;2023-05-07T15:50:43;16.90;99.90
4487;DHT22;2256;48.740;9.106;2023-05-07T15:53:10;17.00;99.90
4487;DHT22;2256;48.740;9.106;2023-05-07T15:55:39;16.80;99.90
4487;DHT22;2256;48.740;9.106;2023-05-07T15:58:07;16.80;99.90
4487;DHT22;2256;48.740;9.106;2023-05-07T16:00:34;16.70;99.90
4487;DHT22;2256;48.740;9.106;2023-05-07T16:03:01;16.70;99.90
4487;DHT22;2256;48.740;9.106;2023-05-07T16:05:28;16.70;99.90
4487;DHT22;2256;48.740;9.106;2023-05-07T16:07:56;16.70;99.90
4487;DHT22;2256;48.740;9.106;2023-05-07T16:10:25;16.70;99.90
4487;DHT22;2256;48.740;9.106;2023-05-07T16:12:52;16.70;99.90
4487;DHT22;2256;48.740;9.106;2023-05-07T16:15:19;16.70;99.90